Time;durP1;ratioP1;P1;durP2;ratioP2;P2;SDS_P1;SDS_P2;PMS_P1;PMS_P2;Temp;Humidity;BMP_temperature;BMP_pressure;BME280_temperature;BME280_humidity;BME280_pressure;Samples;Min_cycle;Max_cycle;Signal;HPM_P1;HPM_P2
2023/08/29 00:02:08;;;;;;;;;;;13.60;99.90;;;;;;7316922;19;9249;-81
2023/08/29 00:04:37;;;;;;;;;;;13.60;99.90;;;;;;7317731;19;9588;-81
2023/08/29 00:07:07;;;;;;;;;;;13.50;99.90;;;;;;7316422;19;9357;-81
2023/08/29 00:09:35;;;;;;;;;;;13.40;99.90;;;;;;7319625;19;9177;-81
2023/08/29 00:12:05;;;;;;;;;;;13.40;99.90;;;;;;7319221;19;9284;-81
2023/08/29 00:14:36;;;;;;;;;;;13.40;99.90;;;;;;7319684;19;9335;-81
2023/08/29 00:17:06;;;;;;;;;;;13.30;99.90;;;;;;7318565;19;9221;-81
2023/08/29 00:19:35;;;;;;;;;;;13.30;99.90;;;;;;7318377;19;9209;-81
2023/08/29 00:22:04;;;;;;;;;;;13.30;99.90;;;;;;7318232;19;9593;-81
2023/08/29 00:24:33;;;;;;;;;;;13.30;99.90;;;;;;7318948;19;9209;-81
2023/08/29 00:27:02;;;;;;;;;;;13.30;99.90;;;;;;7319797;19;9221;-81
2023/08/29 00:29:31;;;;;;;;;;;13.30;99.90;;;;;;7318759;19;9659;-81
2023/08/29 00:32:03;;;;;;;;;;;13.30;99.90;;;;;;7319531;19;10360;-81
2023/08/29 00:34:32;;;;;;;;;;;13.20;99.90;;;;;;7316094;19;9527;-81
2023/08/29 00:37:01;;;;;;;;;;;13.10;99.90;;;;;;7319687;19;9379;-81
2023/08/29 00:39:30;;;;;;;;;;;13.10;99.90;;;;;;7318031;19;9484;-81
2023/08/29 00:42:03;;;;;;;;;;;13.10;99.90;;;;;;7318496;19;9893;-81
2023/08/29 00:44:32;;;;;;;;;;;13.10;99.90;;;;;;7317644;19;9525;-81
2023/08/29 00:47:05;;;;;;;;;;;13.20;99.90;;;;;;7320196;19;9201;-81
2023/08/29 00:49:35;;;;;;;;;;;13.20;99.90;;;;;;7324954;19;9314;-81
2023/08/29 00:52:05;;;;;;;;;;;13.20;99.90;;;;;;7325913;19;9236;-81
2023/08/29 00:54:34;;;;;;;;;;;13.20;99.90;;;;;;7324314;19;9287;-81
2023/08/29 00:57:03;;;;;;;;;;;13.20;99.90;;;;;;7324922;19;9252;-81
2023/08/29 00:59:33;;;;;;;;;;;13.20;99.90;;;;;;7326155;19;9250;-81
2023/08/29 01:02:04;;;;;;;;;;;13.20;99.90;;;;;;7324333;19;9572;-81
2023/08/29 01:04:33;;;;;;;;;;;13.20;99.90;;;;;;7323827;19;9666;-81
2023/08/29 01:07:03;;;;;;;;;;;13.10;99.90;;;;;;7322774;19;9260;-81
2023/08/29 01:09:33;;;;;;;;;;;13.00;99.90;;;;;;7324076;19;9363;-81
2023/08/29 01:12:18;;;;;;;;;;;13.00;99.90;;;;;;7323663;19;8944;-81
2023/08/29 01:14:58;;;;;;;;;;;13.10;99.90;;;;;;7323998;19;9259;-81
2023/08/29 01:17:37;;;;;;;;;;;13.10;99.90;;;;;;7323603;19;9255;-81
2023/08/29 01:20:09;;;;;;;;;;;13.10;99.90;;;;;;7323168;19;9548;-81
2023/08/29 01:22:52;;;;;;;;;;;13.10;99.90;;;;;;7325339;19;9375;-81
2023/08/29 01:25:28;;;;;;;;;;;13.10;99.90;;;;;;7324601;19;9371;-81
2023/08/29 01:28:00;;;;;;;;;;;13.10;99.90;;;;;;7320448;19;10317;-81
2023/08/29 01:30:31;;;;;;;;;;;13.10;99.90;;;;;;7321919;19;9357;-81
2023/08/29 01:33:01;;;;;;;;;;;13.10;99.90;;;;;;7321161;19;9345;-81
2023/08/29 01:35:31;;;;;;;;;;;13.00;99.90;;;;;;7324429;19;10315;-81
2023/08/29 01:38:00;;;;;;;;;;;13.00;99.90;;;;;;7322925;19;9364;-81
2023/08/29 01:40:29;;;;;;;;;;;13.00;99.90;;;;;;7323025;19;9904;-81
2023/08/29 01:43:04;;;;;;;;;;;12.90;99.90;;;;;;7323614;19;9293;-81
2023/08/29 01:45:33;;;;;;;;;;;13.00;99.90;;;;;;7323620;19;9295;-81
2023/08/29 01:48:02;;;;;;;;;;;13.00;99.90;;;;;;7319218;19;9256;-81
2023/08/29 01:50:35;;;;;;;;;;;13.00;99.90;;;;;;7323276;19;9456;-81
2023/08/29 01:53:05;;;;;;;;;;;13.00;99.90;;;;;;7322460;19;9137;-80
2023/08/29 01:55:55;;;;;;;;;;;13.10;99.90;;;;;;7322642;19;9497;-81
2023/08/29 01:58:28;;;;;;;;;;;13.00;99.90;;;;;;7319737;19;9252;-81
2023/08/29 02:00:58;;;;;;;;;;;13.00;99.90;;;;;;7323579;19;9274;-81
2023/08/29 02:03:27;;;;;;;;;;;13.10;99.90;;;;;;7320835;19;9173;-81
2023/08/29 02:05:56;;;;;;;;;;;13.10;99.90;;;;;;7322593;19;9489;-80
2023/08/29 02:08:25;;;;;;;;;;;13.00;99.90;;;;;;7319815;19;9313;-81
2023/08/29 02:10:54;;;;;;;;;;;13.00;99.90;;;;;;7324097;19;9154;-81
2023/08/29 02:13:25;;;;;;;;;;;13.00;99.90;;;;;;7321636;19;9331;-81
2023/08/29 02:15:54;;;;;;;;;;;13.00;99.90;;;;;;7323564;19;9130;-81
2023/08/29 02:18:23;;;;;;;;;;;12.90;99.90;;;;;;7321097;19;9363;-81
2023/08/29 02:20:52;;;;;;;;;;;12.90;99.90;;;;;;7322723;19;9466;-81
2023/08/29 02:23:21;;;;;;;;;;;12.90;99.90;;;;;;7321962;19;9600;-81
2023/08/29 02:25:50;;;;;;;;;;;12.90;99.90;;;;;;7323587;19;9285;-81
2023/08/29 02:28:19;;;;;;;;;;;12.90;99.90;;;;;;7319196;19;10214;-81
2023/08/29 02:30:51;;;;;;;;;;;12.90;99.90;;;;;;7320884;19;9567;-81
2023/08/29 02:33:20;;;;;;;;;;;12.90;99.90;;;;;;7323596;19;8997;-81
2023/08/29 02:35:48;;;;;;;;;;;12.90;99.90;;;;;;7322955;19;9008;-81
2023/08/29 02:38:17;;;;;;;;;;;12.90;99.90;;;;;;7323338;19;9622;-81
2023/08/29 02:40:46;;;;;;;;;;;12.80;99.90;;;;;;7321047;19;9099;-81
2023/08/29 02:43:16;;;;;;;;;;;12.70;99.90;;;;;;7322503;19;9289;-81
2023/08/29 02:45:45;;;;;;;;;;;12.70;99.90;;;;;;7321346;19;9571;-81
2023/08/29 02:48:16;;;;;;;;;;;12.70;99.90;;;;;;7318922;19;9323;-81
2023/08/29 02:50:48;;;;;;;;;;;12.60;99.90;;;;;;7320071;19;9240;-80
2023/08/29 02:53:18;;;;;;;;;;;12.60;99.90;;;;;;7319305;19;9167;-81
2023/08/29 02:55:47;;;;;;;;;;;12.50;99.90;;;;;;7316194;19;9284;-81
2023/08/29 02:58:16;;;;;;;;;;;12.50;99.90;;;;;;7321123;19;9211;-81
2023/08/29 03:00:45;;;;;;;;;;;12.50;99.90;;;;;;7316907;19;8944;-81
2023/08/29 03:03:17;;;;;;;;;;;12.40;99.90;;;;;;7316834;19;9476;-81
2023/08/29 03:05:55;;;;;;;;;;;12.30;99.90;;;;;;7317898;19;10205;-81
2023/08/29 03:08:24;;;;;;;;;;;12.30;99.90;;;;;;7314959;19;9217;-81
2023/08/29 03:11:13;;;;;;;;;;;12.20;99.90;;;;;;7313233;19;9665;-81
2023/08/29 03:13:42;;;;;;;;;;;12.20;99.90;;;;;;7321946;19;9461;-81
2023/08/29 03:16:15;;;;;;;;;;;12.10;99.90;;;;;;7312222;19;9724;-81
2023/08/29 03:18:46;;;;;;;;;;;12.00;99.90;;;;;;7318018;19;9312;-82
2023/08/29 03:21:15;;;;;;;;;;;11.90;99.90;;;;;;7315365;19;8944;-81
2023/08/29 03:23:44;;;;;;;;;;;11.90;99.90;;;;;;7314142;19;9187;-81
2023/08/29 03:26:13;;;;;;;;;;;11.90;99.90;;;;;;7311921;19;9248;-81
2023/08/29 03:28:43;;;;;;;;;;;11.90;99.90;;;;;;7307342;19;9300;-81
2023/08/29 03:31:13;;;;;;;;;;;12.00;99.90;;;;;;7319117;19;9499;-82
2023/08/29 03:33:46;;;;;;;;;;;11.90;99.90;;;;;;7309938;19;9344;-82
2023/08/29 03:36:15;;;;;;;;;;;11.90;99.90;;;;;;7309357;19;9519;-81
2023/08/29 03:38:45;;;;;;;;;;;12.00;99.90;;;;;;7300122;19;9236;-81
2023/08/29 03:41:14;;;;;;;;;;;11.90;99.90;;;;;;7302666;19;9280;-82
2023/08/29 03:43:44;;;;;;;;;;;12.00;99.90;;;;;;7302095;19;9346;-81
2023/08/29 03:46:13;;;;;;;;;;;12.00;99.90;;;;;;7309293;19;9528;-81
2023/08/29 03:48:42;;;;;;;;;;;12.00;99.90;;;;;;7304117;19;9761;-81
2023/08/29 03:51:14;;;;;;;;;;;11.90;99.90;;;;;;7301832;19;9724;-81
2023/08/29 03:53:42;;;;;;;;;;;11.90;99.90;;;;;;7306680;19;9293;-81
2023/08/29 03:56:12;;;;;;;;;;;11.90;99.90;;;;;;7310624;19;9292;-81
2023/08/29 03:58:41;;;;;;;;;;;12.00;99.90;;;;;;7305427;19;9552;-81
2023/08/29 04:01:11;;;;;;;;;;;12.00;99.90;;;;;;7306133;19;9346;-81
2023/08/29 04:03:40;;;;;;;;;;;12.00;99.90;;;;;;7315165;19;9243;-81
2023/08/29 04:06:09;;;;;;;;;;;12.10;99.90;;;;;;7319643;19;9494;-81
2023/08/29 04:08:41;;;;;;;;;;;12.10;99.90;;;;;;7317872;19;9291;-81
2023/08/29 04:11:10;;;;;;;;;;;12.00;99.90;;;;;;7320274;19;9481;-81
2023/08/29 04:13:39;;;;;;;;;;;12.00;99.90;;;;;;7318176;19;9651;-81
2023/08/29 04:16:08;;;;;;;;;;;11.90;99.90;;;;;;7318735;19;9451;-81
2023/08/29 04:18:36;;;;;;;;;;;11.90;99.90;;;;;;7315401;19;9711;-81
2023/08/29 04:21:05;;;;;;;;;;;12.00;99.90;;;;;;7318758;19;9465;-81
2023/08/29 04:23:34;;;;;;;;;;;11.90;99.90;;;;;;7318032;19;11184;-81
2023/08/29 04:26:06;;;;;;;;;;;11.90;99.90;;;;;;7319540;19;10161;-81
2023/08/29 04:28:35;;;;;;;;;;;12.00;99.90;;;;;;7316097;19;9497;-81
2023/08/29 04:31:11;;;;;;;;;;;12.00;99.90;;;;;;7317583;19;9471;-81
2023/08/29 04:33:42;;;;;;;;;;;12.00;99.90;;;;;;7317278;19;9224;-81
2023/08/29 04:36:11;;;;;;;;;;;12.00;99.90;;;;;;7320326;19;11521;-81
2023/08/29 04:38:41;;;;;;;;;;;12.00;99.90;;;;;;7318133;19;9510;-81
2023/08/29 04:41:13;;;;;;;;;;;11.90;99.90;;;;;;7320054;19;9525;-82
2023/08/29 04:43:43;;;;;;;;;;;12.00;99.90;;;;;;7315009;19;9277;-81
2023/08/29 04:46:12;;;;;;;;;;;12.00;99.90;;;;;;7320093;19;9241;-81
2023/08/29 04:48:44;;;;;;;;;;;12.10;99.90;;;;;;7319338;19;9554;-81
2023/08/29 04:51:13;;;;;;;;;;;12.10;99.90;;;;;;7320385;19;9320;-81
2023/08/29 04:53:42;;;;;;;;;;;12.10;99.90;;;;;;7318012;19;9437;-81
2023/08/29 04:56:13;;;;;;;;;;;12.10;99.90;;;;;;7317984;19;9295;-81
2023/08/29 04:58:42;;;;;;;;;;;12.10;99.90;;;;;;7317990;19;9666;-81
2023/08/29 05:01:11;;;;;;;;;;;12.10;99.90;;;;;;7313278;19;9260;-81
2023/08/29 05:03:40;;;;;;;;;;;12.10;99.90;;;;;;7307606;19;9352;-81
2023/08/29 05:06:09;;;;;;;;;;;12.10;99.90;;;;;;7315590;19;9280;-81
2023/08/29 05:08:38;;;;;;;;;;;12.10;99.90;;;;;;7313602;19;8945;-81
2023/08/29 05:11:07;;;;;;;;;;;12.00;99.90;;;;;;7313855;19;9511;-82
2023/08/29 05:13:39;;;;;;;;;;;12.00;99.90;;;;;;7311450;19;9523;-81
2023/08/29 05:16:08;;;;;;;;;;;11.90;99.90;;;;;;7308666;19;9284;-81
2023/08/29 05:18:37;;;;;;;;;;;11.90;99.90;;;;;;7315171;19;10903;-81
2023/08/29 05:21:06;;;;;;;;;;;11.90;99.90;;;;;;7304227;19;9765;-81
2023/08/29 05:23:37;;;;;;;;;;;11.90;99.90;;;;;;7306488;19;9265;-81
2023/08/29 05:26:07;;;;;;;;;;;11.90;99.90;;;;;;7317016;19;9601;-81
2023/08/29 05:28:38;;;;;;;;;;;11.90;99.90;;;;;;7314124;19;9182;-81
2023/08/29 05:31:07;;;;;;;;;;;11.90;99.90;;;;;;7313425;19;9274;-81
2023/08/29 05:33:36;;;;;;;;;;;11.90;99.90;;;;;;7319799;19;9108;-81
2023/08/29 05:36:25;;;;;;;;;;;11.90;99.90;;;;;;7320510;19;9261;-80
2023/08/29 05:38:54;;;;;;;;;;;11.90;99.90;;;;;;7321402;19;9451;-78
2023/08/29 05:41:24;;;;;;;;;;;11.90;99.90;;;;;;7320773;19;9537;-77
2023/08/29 05:43:55;;;;;;;;;;;11.90;99.90;;;;;;7322578;19;9239;-76
2023/08/29 05:46:25;;;;;;;;;;;11.90;99.90;;;;;;7322267;19;9320;-75
2023/08/29 05:48:54;;;;;;;;;;;11.90;99.90;;;;;;7322197;19;9287;-74
2023/08/29 05:51:23;;;;;;;;;;;12.00;99.90;;;;;;7324040;19;8944;-78
2023/08/29 05:54:12;;;;;;;;;;;12.10;99.90;;;;;;7289005;19;9653;-83
2023/08/29 05:56:41;;;;;;;;;;;12.10;99.90;;;;;;7315090;19;9473;-87
2023/08/29 05:59:13;;;;;;;;;;;12.20;99.90;;;;;;7322195;19;9275;-79
2023/08/29 06:01:42;;;;;;;;;;;12.20;99.90;;;;;;7324833;19;9461;-79
2023/08/29 06:04:11;;;;;;;;;;;12.30;99.90;;;;;;7323583;19;9252;-81
2023/08/29 06:07:00;;;;;;;;;;;12.30;99.90;;;;;;7324577;19;9256;-80
2023/08/29 06:09:29;;;;;;;;;;;12.40;99.90;;;;;;7325788;19;9646;-76
2023/08/29 06:11:58;;;;;;;;;;;12.50;99.90;;;;;;7318238;19;9591;-75
2023/08/29 06:14:30;;;;;;;;;;;12.50;99.90;;;;;;7318673;19;9499;-76
2023/08/29 06:16:59;;;;;;;;;;;12.60;99.90;;;;;;7323519;19;9237;-75
2023/08/29 06:19:28;;;;;;;;;;;12.60;99.90;;;;;;7326297;19;9542;-74
2023/08/29 06:21:57;;;;;;;;;;;12.70;99.90;;;;;;7321762;19;9414;-74
2023/08/29 06:24:26;;;;;;;;;;;12.70;99.90;;;;;;7311764;19;9359;-76
2023/08/29 06:26:55;;;;;;;;;;;12.80;99.90;;;;;;7322116;19;9272;-76
2023/08/29 06:29:46;;;;;;;;;;;12.80;99.90;;;;;;7304685;19;10192;-76
2023/08/29 06:32:15;;;;;;;;;;;12.80;99.90;;;;;;7318205;19;9266;-76
2023/08/29 06:34:44;;;;;;;;;;;12.80;99.90;;;;;;7325378;19;9556;-76
2023/08/29 06:37:33;;;;;;;;;;;12.80;99.90;;;;;;7317372;19;9240;-76
2023/08/29 06:40:04;;;;;;;;;;;12.80;99.90;;;;;;7323630;19;9340;-76
2023/08/29 06:42:33;;;;;;;;;;;12.80;99.90;;;;;;7323639;19;11283;-76
2023/08/29 06:45:06;;;;;;;;;;;12.90;99.90;;;;;;7315678;19;9450;-79
2023/08/29 06:47:36;;;;;;;;;;;12.90;99.90;;;;;;7322158;19;9631;-79
2023/08/29 06:50:05;;;;;;;;;;;12.90;99.90;;;;;;7319766;19;9620;-79
2023/08/29 06:52:34;;;;;;;;;;;12.90;99.90;;;;;;7321288;19;10173;-79
2023/08/29 06:55:04;;;;;;;;;;;12.90;99.90;;;;;;7324762;19;9253;-79
2023/08/29 06:57:33;;;;;;;;;;;13.00;99.90;;;;;;7322230;19;9161;-79
2023/08/29 07:00:05;;;;;;;;;;;13.00;99.90;;;;;;7321731;19;9113;-78
2023/08/29 07:02:34;;;;;;;;;;;13.10;99.90;;;;;;7321604;19;9260;-79
2023/08/29 07:05:03;;;;;;;;;;;13.20;99.90;;;;;;7319788;19;8944;-79
2023/08/29 07:07:32;;;;;;;;;;;13.30;99.90;;;;;;7323228;19;9205;-79
2023/08/29 07:10:02;;;;;;;;;;;13.30;99.90;;;;;;7322198;19;9201;-79
2023/08/29 07:12:31;;;;;;;;;;;13.40;99.90;;;;;;7324320;19;10570;-79
2023/08/29 07:15:00;;;;;;;;;;;13.50;99.90;;;;;;7323497;19;10382;-79
2023/08/29 07:17:32;;;;;;;;;;;13.60;99.90;;;;;;7323356;19;9190;-79
2023/08/29 07:20:02;;;;;;;;;;;13.70;99.90;;;;;;7323503;19;9268;-79
2023/08/29 07:22:31;;;;;;;;;;;13.80;99.90;;;;;;7322894;19;9221;-79
2023/08/29 07:25:01;;;;;;;;;;;14.00;99.90;;;;;;7323422;19;9267;-79
2023/08/29 07:27:29;;;;;;;;;;;14.20;99.90;;;;;;7321454;19;9245;-79
2023/08/29 07:30:18;;;;;;;;;;;14.40;99.90;;;;;;7317032;19;9679;-78
2023/08/29 07:32:50;;;;;;;;;;;14.60;99.90;;;;;;7322774;19;9323;-79
2023/08/29 07:35:19;;;;;;;;;;;14.70;99.90;;;;;;7323377;19;9217;-79
2023/08/29 07:37:48;;;;;;;;;;;15.00;99.90;;;;;;7321742;19;9233;-79
2023/08/29 07:40:17;;;;;;;;;;;15.40;99.90;;;;;;7322679;19;9293;-79
2023/08/29 07:42:47;;;;;;;;;;;15.80;99.90;;;;;;7322543;19;10587;-79
2023/08/29 07:45:16;;;;;;;;;;;16.10;99.90;;;;;;7321410;19;10407;-79
2023/08/29 07:47:45;;;;;;;;;;;16.40;99.90;;;;;;7319457;19;9597;-78
2023/08/29 07:50:17;;;;;;;;;;;16.70;99.90;;;;;;7322101;19;9214;-78
2023/08/29 07:52:46;;;;;;;;;;;17.00;99.90;;;;;;7322880;19;9354;-78
2023/08/29 07:55:15;;;;;;;;;;;17.30;99.90;;;;;;7321508;19;9227;-78
2023/08/29 07:57:44;;;;;;;;;;;17.50;99.90;;;;;;7320655;19;9200;-78
2023/08/29 08:00:15;;;;;;;;;;;17.60;99.90;;;;;;7322312;19;10382;-78
2023/08/29 08:02:44;;;;;;;;;;;17.70;99.90;;;;;;7318781;19;10714;-78
2023/08/29 08:05:18;;;;;;;;;;;17.80;99.90;;;;;;7318993;19;9530;-78
2023/08/29 08:07:48;;;;;;;;;;;17.90;99.90;;;;;;7319302;19;9646;-78
2023/08/29 08:10:37;;;;;;;;;;;18.00;99.90;;;;;;7318461;19;9544;-78
2023/08/29 08:13:07;;;;;;;;;;;18.10;99.90;;;;;;7322957;19;9470;-78
2023/08/29 08:15:36;;;;;;;;;;;18.30;99.90;;;;;;7321630;19;9466;-78
2023/08/29 08:18:08;;;;;;;;;;;18.40;99.90;;;;;;7318848;19;9472;-78
2023/08/29 08:20:39;;;;;;;;;;;18.60;99.90;;;;;;7321039;19;9462;-78
2023/08/29 08:23:08;;;;;;;;;;;18.80;99.90;;;;;;7319991;19;9311;-78
2023/08/29 08:25:37;;;;;;;;;;;18.70;99.90;;;;;;7322169;19;10273;-78
2023/08/29 08:28:07;;;;;;;;;;;18.70;99.90;;;;;;7318220;19;9244;-78
2023/08/29 08:30:38;;;;;;;;;;;18.60;99.90;;;;;;7318973;19;9245;-78
2023/08/29 08:33:08;;;;;;;;;;;18.60;99.90;;;;;;7319381;19;9337;-78
2023/08/29 08:35:40;;;;;;;;;;;18.70;99.90;;;;;;7322301;19;9265;-78
2023/08/29 08:38:09;;;;;;;;;;;18.80;99.90;;;;;;7320119;19;9230;-78
2023/08/29 08:40:59;;;;;;;;;;;18.70;99.90;;;;;;7311626;19;9513;-78
2023/08/29 08:43:31;;;;;;;;;;;18.70;99.90;;;;;;7317403;19;9123;-78
2023/08/29 08:46:00;;;;;;;;;;;18.70;99.90;;;;;;7319802;19;9424;-78
2023/08/29 08:48:31;;;;;;;;;;;18.70;99.90;;;;;;7317425;19;9173;-78
2023/08/29 08:51:04;;;;;;;;;;;18.70;99.90;;;;;;7317707;19;9695;-78
2023/08/29 08:53:36;;;;;;;;;;;18.80;99.90;;;;;;7310962;19;9341;-78
2023/08/29 08:56:06;;;;;;;;;;;18.80;99.90;;;;;;7317745;19;9248;-78
2023/08/29 08:58:37;;;;;;;;;;;18.70;99.90;;;;;;7320887;19;11504;-78
2023/08/29 09:01:28;;;;;;;;;;;18.50;99.90;;;;;;7319062;19;9209;-78
2023/08/29 09:03:58;;;;;;;;;;;18.50;99.90;;;;;;7320859;19;9229;-78
2023/08/29 09:06:31;;;;;;;;;;;18.50;99.90;;;;;;7321483;19;9196;-78
2023/08/29 09:09:18;;;;;;;;;;;18.50;99.90;;;;;;7323261;19;9402;-78
2023/08/29 09:11:54;;;;;;;;;;;18.30;99.90;;;;;;7329241;19;9301;-78
2023/08/29 09:14:24;;;;;;;;;;;18.40;99.90;;;;;;7327416;19;9223;-78
2023/08/29 09:17:13;;;;;;;;;;;18.40;99.90;;;;;;7323880;19;9252;-78
2023/08/29 09:20:05;;;;;;;;;;;18.40;99.90;;;;;;7322580;19;9273;-78
2023/08/29 09:22:36;;;;;;;;;;;18.50;99.90;;;;;;7327938;19;9467;-78
2023/08/29 09:25:08;;;;;;;;;;;18.50;99.90;;;;;;7325676;19;9160;-78
2023/08/29 09:27:42;;;;;;;;;;;18.70;99.90;;;;;;7327019;19;9613;-77
2023/08/29 09:30:16;;;;;;;;;;;18.80;99.90;;;;;;7325438;19;9601;-78
2023/08/29 09:32:46;;;;;;;;;;;18.80;99.90;;;;;;7328542;19;9470;-78
2023/08/29 09:35:16;;;;;;;;;;;18.70;99.90;;;;;;7325238;19;9417;-78
2023/08/29 09:37:54;;;;;;;;;;;18.50;99.90;;;;;;7325196;19;9264;-78
2023/08/29 09:40:24;;;;;;;;;;;18.60;99.90;;;;;;7327422;19;9189;-78
2023/08/29 09:42:58;;;;;;;;;;;18.70;99.90;;;;;;7326464;19;9169;-78
2023/08/29 09:45:27;;;;;;;;;;;18.80;99.90;;;;;;7325930;19;9281;-78
2023/08/29 09:47:56;;;;;;;;;;;18.80;99.90;;;;;;7325620;19;9457;-78
2023/08/29 09:50:28;;;;;;;;;;;18.80;99.90;;;;;;7324262;19;9781;-78
2023/08/29 09:53:01;;;;;;;;;;;18.60;99.90;;;;;;7323372;19;9256;-77
2023/08/29 09:55:39;;;;;;;;;;;18.80;99.90;;;;;;7320826;19;9196;-78
2023/08/29 09:58:09;;;;;;;;;;;18.90;99.90;;;;;;7326028;19;9082;-78
2023/08/29 10:00:40;;;;;;;;;;;19.10;99.90;;;;;;7323984;19;9546;-78
2023/08/29 10:03:11;;;;;;;;;;;19.30;99.50;;;;;;7326031;19;9493;-80
2023/08/29 10:05:42;;;;;;;;;;;19.60;99.90;;;;;;7325685;19;9197;-79
2023/08/29 10:08:25;;;;;;;;;;;20.00;99.90;;;;;;7325123;19;9120;-77
2023/08/29 10:10:56;;;;;;;;;;;20.10;99.90;;;;;;7321384;19;9554;-78
2023/08/29 10:13:27;;;;;;;;;;;20.40;99.90;;;;;;7325572;19;9157;-77
2023/08/29 10:15:59;;;;;;;;;;;20.50;99.90;;;;;;7324402;19;9256;-79
2023/08/29 10:18:31;;;;;;;;;;;20.50;99.90;;;;;;7325721;19;10708;-79
2023/08/29 10:21:22;;;;;;;;;;;20.30;99.90;;;;;;7323925;19;9540;-77
2023/08/29 10:23:54;;;;;;;;;;;20.10;95.30;;;;;;7326730;19;9350;-77
2023/08/29 10:26:24;;;;;;;;;;;20.10;93.70;;;;;;7323055;19;9308;-77
2023/08/29 10:28:54;;;;;;;;;;;19.90;95.30;;;;;;7325598;19;10242;-77
2023/08/29 10:31:24;;;;;;;;;;;19.80;91.70;;;;;;7322833;19;9193;-77
2023/08/29 10:33:57;;;;;;;;;;;19.50;92.60;;;;;;7322315;19;9468;-77
2023/08/29 10:36:48;;;;;;;;;;;19.70;95.10;;;;;;7323016;19;9262;-78
2023/08/29 10:39:21;;;;;;;;;;;19.80;99.50;;;;;;7324987;19;9313;-77
2023/08/29 10:41:55;;;;;;;;;;;19.90;96.80;;;;;;7325291;19;9184;-77
2023/08/29 10:44:40;;;;;;;;;;;20.20;99.20;;;;;;7324585;19;9265;-76
2023/08/29 10:47:23;;;;;;;;;;;20.60;99.50;;;;;;7323800;19;9174;-76
2023/08/29 10:49:59;;;;;;;;;;;20.60;86.80;;;;;;7324421;19;9277;-77
2023/08/29 10:52:40;;;;;;;;;;;20.80;94.30;;;;;;7321979;19;9192;-77
2023/08/29 10:55:23;;;;;;;;;;;20.90;97.30;;;;;;7324119;19;9207;-77
2023/08/29 10:57:58;;;;;;;;;;;20.90;90.80;;;;;;7324308;19;9467;-77
2023/08/29 11:00:54;;;;;;;;;;;21.10;96.00;;;;;;7324404;19;9623;-77
2023/08/29 11:03:48;;;;;;;;;;;21.40;96.80;;;;;;7322316;19;9229;-77
2023/08/29 11:06:17;;;;;;;;;;;21.50;94.80;;;;;;7323569;19;9445;-74
2023/08/29 11:08:47;;;;;;;;;;;21.10;88.70;;;;;;7321329;19;9479;-74
2023/08/29 11:11:21;;;;;;;;;;;21.40;95.10;;;;;;7322774;19;9173;-74
2023/08/29 11:14:01;;;;;;;;;;;21.40;94.20;;;;;;7323438;19;9257;-78
2023/08/29 11:16:34;;;;;;;;;;;21.30;91.60;;;;;;7323014;19;9155;-74
2023/08/29 11:19:08;;;;;;;;;;;21.20;90.30;;;;;;7324116;19;9177;-76
2023/08/29 11:21:37;;;;;;;;;;;21.20;92.30;;;;;;7323641;19;9205;-73
2023/08/29 11:24:09;;;;;;;;;;;21.30;92.40;;;;;;7321876;19;9223;-74
2023/08/29 11:26:43;;;;;;;;;;;21.40;93.10;;;;;;7318895;19;9218;-77
2023/08/29 11:29:12;;;;;;;;;;;21.30;82.50;;;;;;7314163;19;8944;-77
2023/08/29 11:31:42;;;;;;;;;;;21.30;90.00;;;;;;7317743;19;9308;-77
2023/08/29 11:34:17;;;;;;;;;;;21.40;92.50;;;;;;7321600;19;9628;-76
2023/08/29 11:36:48;;;;;;;;;;;21.40;91.10;;;;;;7324009;19;9589;-76
2023/08/29 11:39:17;;;;;;;;;;;21.60;92.10;;;;;;7321629;19;9252;-77
2023/08/29 11:41:49;;;;;;;;;;;21.60;91.10;;;;;;7323359;19;9247;-77
2023/08/29 11:44:19;;;;;;;;;;;21.60;90.80;;;;;;7321903;19;9508;-77
2023/08/29 11:46:48;;;;;;;;;;;21.70;90.40;;;;;;7321170;19;9514;-76
2023/08/29 11:49:19;;;;;;;;;;;21.70;90.00;;;;;;7319809;19;9267;-77
2023/08/29 11:52:08;;;;;;;;;;;21.70;91.10;;;;;;7319870;19;9237;-77
2023/08/29 11:54:43;;;;;;;;;;;21.70;91.00;;;;;;7323453;19;9383;-77
2023/08/29 11:57:18;;;;;;;;;;;21.70;90.40;;;;;;7322922;19;9490;-77
2023/08/29 11:59:48;;;;;;;;;;;21.70;90.90;;;;;;7321350;19;9193;-77
2023/08/29 12:02:21;;;;;;;;;;;21.70;91.40;;;;;;7322915;19;9289;-77
2023/08/29 12:04:55;;;;;;;;;;;21.80;91.70;;;;;;7322701;19;9252;-77
2023/08/29 12:07:44;;;;;;;;;;;21.80;90.90;;;;;;7320675;19;9182;-77
2023/08/29 12:10:16;;;;;;;;;;;21.80;90.10;;;;;;7321891;19;9234;-76
2023/08/29 12:12:48;;;;;;;;;;;21.80;92.30;;;;;;7322234;19;10209;-77
2023/08/29 12:15:17;;;;;;;;;;;21.80;89.60;;;;;;7321904;19;9216;-77
2023/08/29 12:17:47;;;;;;;;;;;21.70;91.20;;;;;;7321297;19;9253;-77
2023/08/29 12:20:37;;;;;;;;;;;21.70;90.80;;;;;;7318735;19;9266;-77
2023/08/29 12:23:06;;;;;;;;;;;21.70;90.10;;;;;;7319887;19;9106;-77
2023/08/29 12:25:38;;;;;;;;;;;21.70;90.80;;;;;;7320020;19;11405;-77
2023/08/29 12:28:12;;;;;;;;;;;21.60;89.70;;;;;;7321121;19;9540;-77
2023/08/29 12:30:41;;;;;;;;;;;21.70;90.60;;;;;;7321186;19;9295;-77
2023/08/29 12:33:10;;;;;;;;;;;21.60;90.80;;;;;;7322419;19;9253;-77
2023/08/29 12:35:42;;;;;;;;;;;21.60;91.20;;;;;;7319861;19;9557;-77
2023/08/29 12:38:11;;;;;;;;;;;21.50;89.40;;;;;;7321360;19;9530;-77
2023/08/29 12:40:40;;;;;;;;;;;21.50;90.70;;;;;;7321589;19;10325;-77
2023/08/29 12:43:12;;;;;;;;;;;21.40;90.00;;;;;;7321088;19;9725;-77
2023/08/29 12:45:42;;;;;;;;;;;21.40;88.20;;;;;;7318379;19;9110;-77
2023/08/29 12:48:11;;;;;;;;;;;21.40;90.20;;;;;;7319013;19;9186;-76
2023/08/29 12:50:40;;;;;;;;;;;21.50;91.10;;;;;;7319347;19;9285;-77
2023/08/29 12:53:09;;;;;;;;;;;21.60;90.30;;;;;;7320469;19;9184;-77
2023/08/29 12:55:39;;;;;;;;;;;21.60;91.40;;;;;;7320919;19;9202;-77
2023/08/29 12:58:09;;;;;;;;;;;21.60;86.50;;;;;;7317868;19;9187;-77
2023/08/29 13:00:41;;;;;;;;;;;21.50;87.20;;;;;;7320718;19;9333;-77
2023/08/29 13:03:11;;;;;;;;;;;21.50;89.20;;;;;;7321884;19;9426;-77
2023/08/29 13:05:41;;;;;;;;;;;21.60;90.60;;;;;;7320598;19;9103;-77
2023/08/29 13:08:10;;;;;;;;;;;21.60;90.40;;;;;;7318329;19;9261;-77
2023/08/29 13:10:39;;;;;;;;;;;21.70;87.80;;;;;;7320533;19;9244;-77
2023/08/29 13:13:08;;;;;;;;;;;21.60;90.10;;;;;;7318838;19;9504;-77
2023/08/29 13:15:37;;;;;;;;;;;21.70;91.00;;;;;;7320543;19;9486;-77
2023/08/29 13:18:09;;;;;;;;;;;21.60;89.50;;;;;;7318108;19;9437;-77
2023/08/29 13:20:38;;;;;;;;;;;21.60;90.50;;;;;;7320099;19;9217;-77
2023/08/29 13:23:07;;;;;;;;;;;21.50;89.50;;;;;;7319874;19;9256;-77
2023/08/29 13:25:36;;;;;;;;;;;21.40;87.10;;;;;;7319287;19;9185;-77
2023/08/29 13:28:05;;;;;;;;;;;21.50;90.80;;;;;;7318229;19;9205;-77
2023/08/29 13:30:35;;;;;;;;;;;21.50;91.30;;;;;;7317919;19;9398;-77
2023/08/29 13:33:05;;;;;;;;;;;21.60;92.00;;;;;;7317763;19;9309;-77
2023/08/29 13:35:37;;;;;;;;;;;21.60;88.00;;;;;;7317241;19;9373;-77
2023/08/29 13:38:06;;;;;;;;;;;21.60;86.00;;;;;;7318248;19;9512;-77
2023/08/29 13:40:36;;;;;;;;;;;21.40;84.10;;;;;;7319770;19;9148;-77
2023/08/29 13:43:05;;;;;;;;;;;21.20;85.60;;;;;;7319305;19;9221;-77
2023/08/29 13:45:34;;;;;;;;;;;21.20;88.00;;;;;;7319158;19;9439;-76
2023/08/29 13:48:03;;;;;;;;;;;21.20;90.00;;;;;;7316383;19;9253;-77
2023/08/29 13:50:32;;;;;;;;;;;21.00;84.60;;;;;;7318582;19;11254;-77
2023/08/29 13:53:04;;;;;;;;;;;21.10;91.20;;;;;;7317907;19;9465;-77
2023/08/29 13:55:33;;;;;;;;;;;21.20;92.00;;;;;;7321884;19;9312;-77
2023/08/29 13:58:02;;;;;;;;;;;21.20;89.70;;;;;;7323439;19;10339;-77
2023/08/29 14:00:31;;;;;;;;;;;21.20;90.40;;;;;;7319291;19;9268;-77
2023/08/29 14:03:00;;;;;;;;;;;21.20;90.60;;;;;;7316795;19;9420;-76
2023/08/29 14:05:31;;;;;;;;;;;21.20;89.50;;;;;;7322964;19;9478;-74
2023/08/29 14:08:03;;;;;;;;;;;21.10;86.30;;;;;;7325316;19;9109;-74
2023/08/29 14:10:32;;;;;;;;;;;21.00;89.90;;;;;;7324890;19;9440;-74
2023/08/29 14:13:01;;;;;;;;;;;21.00;90.20;;;;;;7316388;19;10998;-74
2023/08/29 14:15:50;;;;;;;;;;;21.10;90.50;;;;;;7323047;19;9366;-74
2023/08/29 14:18:19;;;;;;;;;;;21.20;91.70;;;;;;7325584;19;10777;-76
2023/08/29 14:20:48;;;;;;;;;;;21.10;89.10;;;;;;7324986;19;9499;-75
2023/08/29 14:23:19;;;;;;;;;;;21.20;91.00;;;;;;7320697;19;10717;-73
2023/08/29 14:25:48;;;;;;;;;;;21.30;91.10;;;;;;7325533;19;9229;-75
2023/08/29 14:28:17;;;;;;;;;;;21.30;91.30;;;;;;7322675;19;9275;-75
2023/08/29 14:30:48;;;;;;;;;;;21.40;91.40;;;;;;7324890;19;9408;-75
2023/08/29 14:33:17;;;;;;;;;;;21.40;91.30;;;;;;7319615;19;9588;-74
2023/08/29 14:35:46;;;;;;;;;;;21.40;91.40;;;;;;7324943;19;9092;-74
2023/08/29 14:38:15;;;;;;;;;;;21.40;91.70;;;;;;7323012;19;9755;-74
2023/08/29 14:40:47;;;;;;;;;;;21.30;91.60;;;;;;7322463;19;9289;-74
2023/08/29 14:43:16;;;;;;;;;;;21.40;91.60;;;;;;7321984;19;9251;-74
2023/08/29 14:45:46;;;;;;;;;;;21.40;92.10;;;;;;7324442;19;9345;-73
2023/08/29 14:48:16;;;;;;;;;;;21.40;92.00;;;;;;7322454;19;9236;-75
2023/08/29 14:50:48;;;;;;;;;;;21.40;92.20;;;;;;7324482;19;9412;-76
2023/08/29 14:53:17;;;;;;;;;;;21.30;91.00;;;;;;7321296;19;9330;-75
2023/08/29 14:55:52;;;;;;;;;;;21.30;91.80;;;;;;7323074;19;10393;-71